createdAt,value
2023-04-15T00:02:08.786Z,67.74
2023-04-15T00:04:37.967Z,67.72
2023-04-15T00:07:05.681Z,67.79
2023-04-15T00:09:34.044Z,67.62
2023-04-15T00:12:02.116Z,68.35
2023-04-15T00:14:31.201Z,68.36
2023-04-15T00:17:00.560Z,68.29
2023-04-15T00:19:28.564Z,67.99
2023-04-15T00:21:57.155Z,68.33
2023-04-15T00:24:25.686Z,68.17
2023-04-15T00:26:53.844Z,68.39
2023-04-15T00:29:21.868Z,68.59
2023-04-15T00:31:49.697Z,68.52
2023-04-15T00:34:17.927Z,69.35
2023-04-15T00:36:45.604Z,68.94
2023-04-15T00:39:13.524Z,68.88
2023-04-15T00:41:41.110Z,69.31
2023-04-15T00:44:09.512Z,69.06
2023-04-15T00:46:37.532Z,69.04
2023-04-15T00:49:05.154Z,69.61
2023-04-15T00:51:33.909Z,69.63
2023-04-15T00:54:02.288Z,69.56
2023-04-15T00:56:29.951Z,69.09
2023-04-15T00:58:58.199Z,69.04
2023-04-15T01:01:26.248Z,69.72
2023-04-15T01:03:54.161Z,70.03
2023-04-15T01:06:22.470Z,69.62
2023-04-15T01:08:50.092Z,69.49
2023-04-15T01:11:18.018Z,69.83
2023-04-15T01:13:45.667Z,69.16
2023-04-15T01:16:13.669Z,69.67
2023-04-15T01:18:41.678Z,69.83
2023-04-15T01:21:09.825Z,69.53
2023-04-15T01:23:38.874Z,69.95
2023-04-15T01:26:06.488Z,69.57
2023-04-15T01:28:34.287Z,69.74
2023-04-15T01:31:02.130Z,69.53
2023-04-15T01:33:29.732Z,69.35
2023-04-15T01:35:57.689Z,69.55
2023-04-15T01:38:25.402Z,69.62
2023-04-15T01:40:53.519Z,68.96
2023-04-15T01:43:23.295Z,68.96
2023-04-15T01:45:50.881Z,69.00
2023-04-15T01:48:19.187Z,69.30
2023-04-15T01:50:46.829Z,68.72
2023-04-15T01:53:14.412Z,68.72
2023-04-15T01:55:42.187Z,68.92
2023-04-15T01:58:10.065Z,69.18
2023-04-15T02:00:38.041Z,69.20
2023-04-15T02:03:05.722Z,69.49
2023-04-15T02:05:33.975Z,69.55
2023-04-15T02:08:01.643Z,69.18
2023-04-15T02:10:29.215Z,69.66
2023-04-15T02:12:57.358Z,69.53
2023-04-15T02:15:25.170Z,69.93
2023-04-15T02:17:55.409Z,69.86
2023-04-15T02:20:23.501Z,70.51
2023-04-15T02:22:51.065Z,70.33
2023-04-15T02:25:19.048Z,70.46
2023-04-15T02:27:47.074Z,70.17
2023-04-15T02:30:14.695Z,70.48
2023-04-15T02:32:45.315Z,70.12
2023-04-15T02:35:13.620Z,70.32
2023-04-15T02:37:44.118Z,71.03
2023-04-15T02:40:12.514Z,70.74
2023-04-15T02:42:40.221Z,71.23
2023-04-15T02:45:08.113Z,70.38
2023-04-15T02:47:36.171Z,70.98
2023-04-15T02:50:04.573Z,70.65
2023-04-15T02:52:32.187Z,70.10
2023-04-15T02:55:00.972Z,70.13
2023-04-15T02:57:29.829Z,70.26
2023-04-15T02:59:57.413Z,70.65
2023-04-15T03:02:25.074Z,70.37
2023-04-15T03:04:52.756Z,70.58
2023-04-15T03:07:20.336Z,70.61
2023-04-15T03:09:48.046Z,70.42
2023-04-15T03:12:16.048Z,70.19
2023-04-15T03:14:44.044Z,70.45
2023-04-15T03:17:11.648Z,70.70
2023-04-15T03:19:39.350Z,69.80
2023-04-15T03:22:06.959Z,70.17
2023-04-15T03:24:34.549Z,70.66
2023-04-15T03:27:03.173Z,70.14
2023-04-15T03:29:30.848Z,70.07
2023-04-15T03:31:58.451Z,70.31
2023-04-15T03:34:27.419Z,70.89
2023-04-15T03:36:55.058Z,70.53
2023-04-15T03:39:22.691Z,70.74
2023-04-15T03:41:50.365Z,70.76
2023-04-15T03:44:18.024Z,70.67
2023-04-15T03:46:45.954Z,71.01
2023-04-15T03:49:13.863Z,70.59
2023-04-15T03:51:41.819Z,71.03
2023-04-15T03:54:09.409Z,71.05
2023-04-15T03:56:37.518Z,70.46
2023-04-15T03:59:05.092Z,70.88
2023-04-15T04:01:32.712Z,70.47
2023-04-15T04:04:00.836Z,70.41
2023-04-15T04:06:28.570Z,70.83
2023-04-15T04:08:56.823Z,70.70
2023-04-15T04:11:24.457Z,70.40
2023-04-15T04:13:51.993Z,71.19
2023-04-15T04:16:20.005Z,70.94
2023-04-15T04:18:48.066Z,70.38
2023-04-15T04:21:15.750Z,70.57
2023-04-15T04:23:43.398Z,70.31
2023-04-15T04:26:11.138Z,70.48
2023-04-15T04:28:40.903Z,70.25
2023-04-15T04:31:08.675Z,70.92
2023-04-15T04:33:36.321Z,70.95
2023-04-15T04:36:03.999Z,71.09
2023-04-15T04:38:31.575Z,71.27
2023-04-15T04:41:00.032Z,70.63
2023-04-15T04:43:27.624Z,70.66
2023-04-15T04:45:55.308Z,70.88
2023-04-15T04:48:23.128Z,70.82
2023-04-15T04:50:50.697Z,71.44
2023-04-15T04:53:18.650Z,70.85
2023-04-15T04:55:46.381Z,70.76
2023-04-15T04:58:13.986Z,71.15
2023-04-15T05:00:42.214Z,70.88
2023-04-15T05:03:10.174Z,70.43
2023-04-15T05:05:39.913Z,70.26
2023-04-15T05:08:07.488Z,70.33
2023-04-15T05:10:35.127Z,70.23
2023-04-15T05:13:02.930Z,69.88
2023-04-15T05:15:30.749Z,70.11
2023-04-15T05:17:58.813Z,70.08
2023-04-15T05:20:26.584Z,69.70
2023-04-15T05:22:54.151Z,69.81
2023-04-15T05:25:23.496Z,69.54
2023-04-15T05:27:51.079Z,69.12
2023-04-15T05:30:19.059Z,69.22
2023-04-15T05:32:47.030Z,69.57
2023-04-15T05:35:14.633Z,69.56
2023-04-15T05:37:42.415Z,68.98
2023-04-15T05:40:10.880Z,69.13
2023-04-15T05:42:38.871Z,69.55
2023-04-15T05:45:09.203Z,69.15
2023-04-15T05:47:37.523Z,69.41
2023-04-15T05:50:05.154Z,69.25
2023-04-15T05:52:32.759Z,68.47
2023-04-15T05:55:00.956Z,68.79
2023-04-15T05:57:28.559Z,68.72
2023-04-15T05:59:57.420Z,68.63
2023-04-15T06:02:25.269Z,68.24
2023-04-15T06:04:53.079Z,67.84
2023-04-15T06:07:21.094Z,67.40
2023-04-15T06:09:49.688Z,67.44
2023-04-15T06:12:17.285Z,67.90
2023-04-15T06:14:45.337Z,67.74
2023-04-15T06:17:15.079Z,67.22
2023-04-15T06:19:43.035Z,67.83
2023-04-15T06:22:10.617Z,67.48
2023-04-15T06:24:38.337Z,67.71
2023-04-15T06:27:06.150Z,67.27
2023-04-15T06:29:33.799Z,67.72
2023-04-15T06:32:01.746Z,67.64
2023-04-15T06:34:29.336Z,67.17
2023-04-15T06:36:57.606Z,67.36
2023-04-15T06:39:25.385Z,67.52
2023-04-15T06:41:53.127Z,66.69
2023-04-15T06:44:20.846Z,67.11
2023-04-15T06:46:48.630Z,66.73
2023-04-15T06:49:16.206Z,66.90
2023-04-15T06:51:43.957Z,66.64
2023-04-15T06:54:12.261Z,66.55
2023-04-15T06:56:40.312Z,66.22
2023-04-15T06:59:08.756Z,66.28
2023-04-15T07:01:36.675Z,66.40
2023-04-15T07:04:04.594Z,65.95
2023-04-15T07:06:32.897Z,65.86
2023-04-15T07:09:02.381Z,65.47
2023-04-15T07:11:30.195Z,65.40
2023-04-15T07:13:57.794Z,65.48
2023-04-15T07:16:28.598Z,65.74
2023-04-15T07:18:57.401Z,65.25
2023-04-15T07:21:25.004Z,64.92
2023-04-15T07:23:52.799Z,64.84
2023-04-15T07:26:20.601Z,65.00
2023-04-15T07:28:48.664Z,64.32
2023-04-15T07:31:16.737Z,64.58
2023-04-15T07:33:44.765Z,64.26
2023-04-15T07:36:12.364Z,64.27
2023-04-15T07:38:40.573Z,63.88
2023-04-15T07:41:08.414Z,63.70
2023-04-15T07:43:36.027Z,63.66
2023-04-15T07:46:04.034Z,63.80
2023-04-15T07:48:31.682Z,63.04
2023-04-15T07:50:59.295Z,63.43
2023-04-15T07:53:26.970Z,62.79
2023-04-15T07:55:54.680Z,62.57
2023-04-15T07:58:22.710Z,62.49
2023-04-15T08:00:50.540Z,62.33
2023-04-15T08:03:18.658Z,61.72
2023-04-15T08:05:47.414Z,62.18
2023-04-15T08:08:15.091Z,61.60
2023-04-15T08:10:43.160Z,61.45
2023-04-15T08:13:11.030Z,61.85
2023-04-15T08:15:38.967Z,62.14
2023-04-15T08:18:07.445Z,61.85
2023-04-15T08:20:35.508Z,61.60
2023-04-15T08:23:03.812Z,62.09
2023-04-15T08:25:31.519Z,61.81
2023-04-15T08:27:59.147Z,62.24
2023-04-15T08:30:26.903Z,62.19
2023-04-15T08:32:54.885Z,61.82
2023-04-15T08:35:22.597Z,62.18
2023-04-15T08:37:50.420Z,62.45
2023-04-15T08:40:18.146Z,62.31
2023-04-15T08:42:50.538Z,62.57
2023-04-15T08:45:18.367Z,62.72
2023-04-15T08:47:46.145Z,62.36
2023-04-15T08:50:14.002Z,62.31
2023-04-15T08:52:41.690Z,62.49
2023-04-15T08:55:09.859Z,62.57
2023-04-15T08:57:37.546Z,62.71
2023-04-15T09:00:05.933Z,62.71
2023-04-15T09:02:33.852Z,62.66
2023-04-15T09:05:02.569Z,62.35
2023-04-15T09:07:30.418Z,62.86
2023-04-15T09:09:58.322Z,62.95
2023-04-15T09:12:26.469Z,63.27
2023-04-15T09:14:54.367Z,63.33
2023-04-15T09:17:22.554Z,63.79
2023-04-15T09:19:50.507Z,63.21
2023-04-15T09:22:18.307Z,64.05
2023-04-15T09:24:47.352Z,64.13
2023-04-15T09:27:15.578Z,64.32
2023-04-15T09:29:43.756Z,64.42
2023-04-15T09:32:11.605Z,64.26
2023-04-15T09:34:39.315Z,64.44
2023-04-15T09:37:08.079Z,64.73
2023-04-15T09:39:36.182Z,64.63
2023-04-15T09:42:03.967Z,64.21
2023-04-15T09:44:32.256Z,64.51
2023-04-15T09:47:00.097Z,64.52
2023-04-15T09:49:29.205Z,64.87
2023-04-15T09:52:04.978Z,64.89
2023-04-15T09:54:34.338Z,65.22
2023-04-15T09:57:02.184Z,64.97
2023-04-15T09:59:30.656Z,64.99
2023-04-15T10:01:58.711Z,64.98
2023-04-15T10:04:26.903Z,65.20
2023-04-15T10:06:55.273Z,65.50
2023-04-15T10:09:23.200Z,65.34
2023-04-15T10:11:51.581Z,65.31
2023-04-15T10:14:19.479Z,65.62
2023-04-15T10:16:49.190Z,65.77
2023-04-15T10:19:17.376Z,65.45
2023-04-15T10:21:45.361Z,65.14
2023-04-15T10:24:13.488Z,65.61
2023-04-15T10:26:41.458Z,65.44
2023-04-15T10:29:09.485Z,66.21
2023-04-15T10:31:38.510Z,66.05
2023-04-15T10:34:06.869Z,66.77
2023-04-15T10:36:34.980Z,66.95
2023-04-15T10:39:03.028Z,66.67
2023-04-15T10:41:31.497Z,66.64
2023-04-15T10:43:59.336Z,66.74
2023-04-15T10:46:27.225Z,66.78
2023-04-15T10:48:55.568Z,66.84
2023-04-15T10:51:23.445Z,67.19
2023-04-15T10:53:51.669Z,67.72
2023-04-15T10:56:19.608Z,67.77
2023-04-15T10:58:47.573Z,67.97
2023-04-15T11:01:15.928Z,68.13
2023-04-15T11:03:44.029Z,68.06
2023-04-15T11:06:12.121Z,68.42
2023-04-15T11:08:40.014Z,68.43
2023-04-15T11:11:07.891Z,68.84
2023-04-15T11:13:36.725Z,68.76
2023-04-15T11:16:04.971Z,69.14
2023-04-15T11:18:33.191Z,69.62
2023-04-15T11:21:01.356Z,69.91
2023-04-15T11:23:29.327Z,70.06
2023-04-15T11:25:57.756Z,70.00
2023-04-15T11:28:25.712Z,69.74
2023-04-15T11:30:54.301Z,69.64
2023-04-15T11:33:22.855Z,70.44
2023-04-15T11:35:50.784Z,70.49
2023-04-15T11:38:19.493Z,70.57
2023-04-15T11:40:47.508Z,71.19
2023-04-15T11:43:16.133Z,71.01
2023-04-15T11:45:44.100Z,70.84
2023-04-15T11:48:11.981Z,71.25
2023-04-15T11:50:41.382Z,70.96
2023-04-15T11:53:09.176Z,71.52
2023-04-15T11:55:37.148Z,71.54
2023-04-15T11:58:05.084Z,71.56
2023-04-15T12:00:32.965Z,71.49
2023-04-15T12:03:01.383Z,71.50
2023-04-15T12:05:29.285Z,71.41
2023-04-15T12:07:57.195Z,71.16
2023-04-15T12:10:25.244Z,71.02
2023-04-15T12:12:53.355Z,71.69
2023-04-15T12:15:21.515Z,71.68
2023-04-15T12:17:51.546Z,71.71
2023-04-15T12:20:20.492Z,71.92
2023-04-15T12:22:49.074Z,72.00
2023-04-15T12:25:17.028Z,71.56
2023-04-15T12:27:45.248Z,72.02
2023-04-15T12:30:13.263Z,72.09
2023-04-15T12:32:43.448Z,71.75
2023-04-15T12:35:11.963Z,71.97
2023-04-15T12:37:39.717Z,72.11
2023-04-15T12:40:08.120Z,72.16
2023-04-15T12:42:36.410Z,71.92
2023-04-15T12:45:04.284Z,72.64
2023-04-15T12:47:32.749Z,72.82
2023-04-15T12:50:00.867Z,72.36
2023-04-15T12:52:29.050Z,72.36
2023-04-15T12:54:57.158Z,72.39
2023-04-15T12:57:25.125Z,72.04
2023-04-15T12:59:53.013Z,71.73
2023-04-15T13:02:21.660Z,72.48
2023-04-15T13:04:50.494Z,72.65
2023-04-15T13:07:18.254Z,72.38
2023-04-15T13:09:46.142Z,72.13
2023-04-15T13:12:15.564Z,72.36
2023-04-15T13:14:43.500Z,72.45
2023-04-15T13:17:11.858Z,72.45
2023-04-15T13:19:39.702Z,72.66
2023-04-15T13:22:08.748Z,72.66
2023-04-15T13:24:37.338Z,72.84
2023-04-15T13:27:05.845Z,72.44
2023-04-15T13:29:33.950Z,72.33
2023-04-15T13:32:01.942Z,72.66
2023-04-15T13:34:31.002Z,72.69
2023-04-15T13:36:58.981Z,72.45
2023-04-15T13:39:26.989Z,72.90
2023-04-15T13:41:57.942Z,72.63
2023-04-15T13:44:26.397Z,72.69
2023-04-15T13:46:54.443Z,72.46
2023-04-15T13:49:24.112Z,73.01
2023-04-15T13:51:52.035Z,72.77
2023-04-15T13:54:20.549Z,72.96
2023-04-15T13:56:48.378Z,73.40
2023-04-15T13:59:16.283Z,73.20
2023-04-15T14:01:46.155Z,72.64
2023-04-15T14:04:14.091Z,72.86
2023-04-15T14:06:42.450Z,73.06
2023-04-15T14:09:10.487Z,72.75
2023-04-15T14:11:38.797Z,72.96
2023-04-15T14:14:07.084Z,72.93
2023-04-15T14:16:35.124Z,72.88
2023-04-15T14:19:03.725Z,72.88
2023-04-15T14:21:32.818Z,72.88
2023-04-15T14:24:00.797Z,72.55
2023-04-15T14:26:28.902Z,72.77
2023-04-15T14:28:57.189Z,72.74
2023-04-15T14:31:25.554Z,73.24
2023-04-15T14:33:53.420Z,72.37
2023-04-15T14:36:21.300Z,73.03
2023-04-15T14:38:49.322Z,73.05
2023-04-15T14:41:17.790Z,73.40
2023-04-15T14:43:46.275Z,73.12
2023-04-15T14:46:14.722Z,73.24
2023-04-15T14:48:42.598Z,73.48
2023-04-15T14:51:10.964Z,73.72
2023-04-15T14:53:38.916Z,73.20
2023-04-15T14:56:07.489Z,73.84
2023-04-15T14:58:35.267Z,73.34
2023-04-15T15:01:03.386Z,73.42
2023-04-15T15:03:31.727Z,73.10
2023-04-15T15:05:59.664Z,73.77
2023-04-15T15:08:27.943Z,73.74
2023-04-15T15:10:55.832Z,73.78
2023-04-15T15:13:23.845Z,73.76
2023-04-15T15:15:52.152Z,73.86
2023-04-15T15:18:20.295Z,74.38
2023-04-15T15:20:48.755Z,74.09
2023-04-15T15:23:16.749Z,74.17
2023-04-15T15:25:44.683Z,73.85
2023-04-15T15:28:12.766Z,74.27
2023-04-15T15:30:40.604Z,74.32
2023-04-15T15:33:08.733Z,73.97
2023-04-15T15:35:36.565Z,74.57
2023-04-15T15:38:04.438Z,74.37
2023-04-15T15:40:36.145Z,74.27
2023-04-15T15:43:04.000Z,74.20
2023-04-15T15:45:32.382Z,74.48
2023-04-15T15:48:00.465Z,74.42
2023-04-15T15:50:28.435Z,74.58
2023-04-15T15:52:56.624Z,74.39
2023-04-15T15:55:25.524Z,74.75
2023-04-15T15:57:53.638Z,75.12
2023-04-15T16:00:21.615Z,74.76
2023-04-15T16:03:05.774Z,75.04
2023-04-15T16:05:35.100Z,75.14
2023-04-15T16:08:03.271Z,75.38
2023-04-15T16:10:31.131Z,75.46
2023-04-15T16:12:59.094Z,75.47
2023-04-15T16:15:26.949Z,75.50
2023-04-15T16:17:55.041Z,75.57
2023-04-15T16:20:23.510Z,75.95
2023-04-15T16:22:51.975Z,75.75
2023-04-15T16:25:19.882Z,75.67
2023-04-15T16:28:00.919Z,76.32
2023-04-15T16:30:31.861Z,76.28
2023-04-15T16:32:59.962Z,75.90
2023-04-15T16:35:28.585Z,75.69
2023-04-15T16:37:56.528Z,76.04
2023-04-15T16:40:24.484Z,75.87
2023-04-15T16:42:54.524Z,76.11
2023-04-15T16:45:22.652Z,75.84
2023-04-15T16:47:50.635Z,76.05
2023-04-15T16:50:18.722Z,75.82
2023-04-15T16:52:46.621Z,76.10
2023-04-15T16:55:14.958Z,76.04
2023-04-15T16:58:00.461Z,76.24
2023-04-15T17:00:30.812Z,76.59
2023-04-15T17:02:58.798Z,76.34
2023-04-15T17:05:28.137Z,76.12
2023-04-15T17:07:56.247Z,75.84
2023-04-15T17:10:24.287Z,76.78
2023-04-15T17:12:52.870Z,76.33
2023-04-15T17:15:20.890Z,76.30
2023-04-15T17:17:49.204Z,76.01
2023-04-15T17:20:17.803Z,76.57
2023-04-15T17:22:45.831Z,76.71
2023-04-15T17:25:13.918Z,76.23
2023-04-15T17:27:41.763Z,76.66
2023-04-15T17:30:10.510Z,76.52
2023-04-15T17:32:39.783Z,76.83
2023-04-15T17:35:07.810Z,77.20
2023-04-15T17:37:36.141Z,76.69
2023-04-15T17:40:05.857Z,76.80
2023-04-15T17:42:35.848Z,77.07
2023-04-15T17:45:03.823Z,76.71
2023-04-15T17:47:32.588Z,76.97
2023-04-15T17:50:00.568Z,76.87
2023-04-15T17:52:28.538Z,77.26
2023-04-15T17:54:57.241Z,76.65
2023-04-15T17:57:25.359Z,76.92
2023-04-15T17:59:53.265Z,76.92
2023-04-15T18:02:21.304Z,77.16
2023-04-15T18:04:49.491Z,76.97
2023-04-15T18:07:18.498Z,77.05
2023-04-15T18:09:46.695Z,77.06
2023-04-15T18:12:14.715Z,77.04
2023-04-15T18:14:42.625Z,76.75
2023-04-15T18:17:10.464Z,77.19
2023-04-15T18:19:38.193Z,77.12
2023-04-15T18:22:06.179Z,77.43
2023-04-15T18:24:33.946Z,77.15
2023-04-15T18:27:02.463Z,77.49
2023-04-15T18:29:31.867Z,77.71
2023-04-15T18:32:00.980Z,77.86
2023-04-15T18:34:28.799Z,78.02
2023-04-15T18:36:56.655Z,77.67
2023-04-15T18:39:24.518Z,78.11
2023-04-15T18:41:52.442Z,77.65
2023-04-15T18:44:20.846Z,78.00
2023-04-15T18:46:48.696Z,78.26
2023-04-15T18:49:16.488Z,77.88
2023-04-15T18:51:44.443Z,77.86
2023-04-15T18:54:12.819Z,78.43
2023-04-15T18:56:41.188Z,78.20
2023-04-15T18:59:29.325Z,78.25
2023-04-15T19:01:56.908Z,78.54
2023-04-15T19:04:24.973Z,79.09
2023-04-15T19:06:53.609Z,78.92
2023-04-15T19:09:21.464Z,78.20
2023-04-15T19:11:49.438Z,79.07
2023-04-15T19:14:17.727Z,78.90
2023-04-15T19:16:45.705Z,78.51
2023-04-15T19:19:15.140Z,78.55
2023-04-15T19:21:43.108Z,79.11
2023-04-15T19:24:10.963Z,79.21
2023-04-15T19:26:38.981Z,78.99
2023-04-15T19:29:07.083Z,78.53
2023-04-15T19:31:35.461Z,78.85
2023-04-15T19:34:03.464Z,79.10
2023-04-15T19:36:31.801Z,79.35
2023-04-15T19:38:59.651Z,79.16
2023-04-15T19:41:27.531Z,79.19
2023-04-15T19:43:56.182Z,79.13
2023-04-15T19:46:24.290Z,79.07
2023-04-15T19:48:53.395Z,78.94
2023-04-15T19:51:21.458Z,78.99
2023-04-15T19:53:49.831Z,79.02
2023-04-15T19:56:18.438Z,78.95
2023-04-15T19:58:51.053Z,79.40
2023-04-15T20:01:19.049Z,79.32
2023-04-15T20:03:46.937Z,79.26
2023-04-15T20:06:15.011Z,79.07
2023-04-15T20:08:43.504Z,79.39
2023-04-15T20:11:11.441Z,79.46
2023-04-15T20:13:42.984Z,79.43
2023-04-15T20:16:11.946Z,79.13
2023-04-15T20:18:39.768Z,79.47
2023-04-15T20:21:08.113Z,79.54
2023-04-15T20:23:36.283Z,79.52
2023-04-15T20:26:04.104Z,79.63
2023-04-15T20:28:31.913Z,79.37
2023-04-15T20:30:59.824Z,79.57
2023-04-15T20:33:28.473Z,79.19
2023-04-15T20:35:56.322Z,79.76
2023-04-15T20:38:24.302Z,79.45
2023-04-15T20:40:52.607Z,79.70
2023-04-15T20:43:21.865Z,79.43
2023-04-15T20:45:50.578Z,79.62
2023-04-15T20:48:19.437Z,79.81
2023-04-15T20:50:47.372Z,79.75
2023-04-15T20:53:15.251Z,79.79
2023-04-15T20:55:43.789Z,80.11
2023-04-15T20:58:11.671Z,79.35
2023-04-15T21:00:40.376Z,80.07
2023-04-15T21:03:08.396Z,80.17
2023-04-15T21:05:36.509Z,80.28
2023-04-15T21:08:04.420Z,80.23
2023-04-15T21:10:35.458Z,79.96
2023-04-15T21:13:03.299Z,80.30
2023-04-15T21:15:31.154Z,80.28
2023-04-15T21:17:59.052Z,79.96
2023-04-15T21:20:27.397Z,80.16
2023-04-15T21:22:55.826Z,80.42
2023-04-15T21:25:23.924Z,80.36
2023-04-15T21:27:51.810Z,80.35
2023-04-15T21:30:19.693Z,80.25
2023-04-15T21:32:47.476Z,80.42
2023-04-15T21:35:15.716Z,80.87
2023-04-15T21:37:43.658Z,80.28
2023-04-15T21:40:11.834Z,80.08
2023-04-15T21:42:39.607Z,80.35
2023-04-15T21:45:07.475Z,80.42
2023-04-15T21:48:04.196Z,80.36
2023-04-15T21:50:24.390Z,80.29
2023-04-15T21:52:52.251Z,80.81
2023-04-15T21:55:21.385Z,80.82
2023-04-15T21:57:49.943Z,80.32
2023-04-15T22:00:17.843Z,80.62
2023-04-15T22:02:45.789Z,80.91
2023-04-15T22:05:13.936Z,80.44
2023-04-15T22:07:42.358Z,80.28
2023-04-15T22:10:10.828Z,80.74
2023-04-15T22:12:38.537Z,80.72
2023-04-15T22:15:06.269Z,80.49
2023-04-15T22:17:34.396Z,80.40
2023-04-15T22:20:02.315Z,80.67
2023-04-15T22:22:43.489Z,80.53
2023-04-15T22:25:12.540Z,80.73
2023-04-15T22:27:40.303Z,80.60
2023-04-15T22:30:08.111Z,80.66
2023-04-15T22:32:36.609Z,80.77
2023-04-15T22:35:06.615Z,80.05
2023-04-15T22:37:34.469Z,80.45
2023-04-15T22:40:03.245Z,80.53
2023-04-15T22:42:30.990Z,80.20
2023-04-15T22:44:59.310Z,80.16
2023-04-15T22:47:27.262Z,80.28
2023-04-15T22:49:55.363Z,80.00
2023-04-15T22:52:29.983Z,79.99
2023-04-15T22:54:58.657Z,80.31
2023-04-15T22:57:28.426Z,80.16
2023-04-15T22:59:56.214Z,80.32
2023-04-15T23:02:24.248Z,80.39
2023-04-15T23:04:52.244Z,80.29
2023-04-15T23:07:19.925Z,80.47
2023-04-15T23:09:48.215Z,80.27
2023-04-15T23:12:15.970Z,80.20
2023-04-15T23:14:43.682Z,80.03
2023-04-15T23:17:11.470Z,80.15
2023-04-15T23:19:39.127Z,80.46
2023-04-15T23:22:07.590Z,80.04
2023-04-15T23:24:35.468Z,80.32
2023-04-15T23:27:03.148Z,80.08
2023-04-15T23:29:30.888Z,79.99
2023-04-15T23:31:58.643Z,79.96
2023-04-15T23:34:26.429Z,80.03
2023-04-15T23:36:54.159Z,80.01
2023-04-15T23:39:22.025Z,79.91
2023-04-15T23:41:49.677Z,79.80
2023-04-15T23:44:17.311Z,79.90
2023-04-15T23:46:45.097Z,79.94
2023-04-15T23:49:12.874Z,79.79
2023-04-15T23:51:40.570Z,80.00
2023-04-15T23:54:08.695Z,80.09
2023-04-15T23:56:36.542Z,79.88
2023-04-15T23:59:04.854Z,80.28
